createdAt,value
2023-04-18T00:00:57.499Z,59.88
2023-04-18T00:02:03.466Z,60.01
2023-04-18T00:03:09.580Z,59.99
2023-04-18T00:04:16.583Z,60.12
2023-04-18T00:05:22.501Z,59.99
2023-04-18T00:06:28.009Z,60.34
2023-04-18T00:07:33.340Z,60.05
2023-04-18T00:08:38.721Z,60.28
2023-04-18T00:09:44.206Z,60.03
2023-04-18T00:10:49.595Z,60.24
2023-04-18T00:11:54.931Z,60.05
2023-04-18T00:13:00.321Z,60.29
2023-04-18T00:14:05.648Z,60.08
2023-04-18T00:15:10.996Z,60.22
2023-04-18T00:16:16.566Z,60.29
2023-04-18T00:17:21.970Z,60.34
2023-04-18T00:18:27.385Z,60.21
2023-04-18T00:19:32.794Z,60.12
2023-04-18T00:20:38.161Z,60.39
2023-04-18T00:21:43.468Z,60.3
2023-04-18T00:22:48.789Z,60.15
2023-04-18T00:23:54.164Z,60.2
2023-04-18T00:24:59.595Z,60.13
2023-04-18T00:26:04.980Z,60.64
2023-04-18T00:27:10.306Z,60.41
2023-04-18T00:28:15.677Z,60.3
2023-04-18T00:29:21.063Z,60.39
2023-04-18T00:30:26.413Z,60.45
2023-04-18T00:31:31.839Z,60.66
2023-04-18T00:32:37.509Z,60.73
2023-04-18T00:33:42.962Z,60.72
2023-04-18T00:34:48.306Z,60.71
2023-04-18T00:35:53.624Z,61.25
2023-04-18T00:36:58.989Z,61.06
2023-04-18T00:38:04.367Z,61.03
2023-04-18T00:39:09.702Z,61.32
2023-04-18T00:40:15.003Z,61.14
2023-04-18T00:41:20.332Z,61.09
2023-04-18T00:42:25.640Z,60.91
2023-04-18T00:43:30.988Z,60.92
2023-04-18T00:44:36.342Z,60.93
2023-04-18T00:45:41.674Z,60.84
2023-04-18T00:46:47.116Z,61
2023-04-18T00:47:52.741Z,60.74
2023-04-18T00:48:58.211Z,61.46
2023-04-18T00:50:03.526Z,61.22
2023-04-18T00:51:08.886Z,60.96
2023-04-18T00:52:14.258Z,60.81
2023-04-18T00:53:19.602Z,60.83
2023-04-18T00:54:24.975Z,61.63
2023-04-18T00:55:30.341Z,61.59
2023-04-18T00:56:35.662Z,61.7
2023-04-18T00:57:41.042Z,61.38
2023-04-18T00:58:46.406Z,61.18
2023-04-18T00:59:51.722Z,61.8
2023-04-18T01:00:57.095Z,61.74
2023-04-18T01:02:02.984Z,61.9
2023-04-18T01:03:08.942Z,61.34
2023-04-18T01:04:15.645Z,61.64
2023-04-18T01:05:21.173Z,61.37
2023-04-18T01:06:26.602Z,61.85
2023-04-18T01:07:31.936Z,61.05
2023-04-18T01:08:37.308Z,61.25
2023-04-18T01:09:42.626Z,61.17
2023-04-18T01:10:49.243Z,61.46
2023-04-18T01:11:54.599Z,61.55
2023-04-18T01:12:59.917Z,61.69
2023-04-18T01:14:05.285Z,61.68
2023-04-18T01:15:10.721Z,61.6
2023-04-18T01:16:16.137Z,61.57
2023-04-18T01:17:21.545Z,61.21
2023-04-18T01:18:26.913Z,61.97
2023-04-18T01:19:32.246Z,61.94
2023-04-18T01:20:37.558Z,61.59
2023-04-18T01:21:42.884Z,61.76
2023-04-18T01:22:48.225Z,62.09
2023-04-18T01:23:53.584Z,61.36
2023-04-18T01:24:58.982Z,61.35
2023-04-18T01:26:04.376Z,61.5
2023-04-18T01:27:09.711Z,61.63
2023-04-18T01:28:15.092Z,61.44
2023-04-18T01:29:20.461Z,61.38
2023-04-18T01:30:26.261Z,61.7
2023-04-18T01:31:31.733Z,61.44
2023-04-18T01:32:37.205Z,61.45
2023-04-18T01:33:42.598Z,61.7
2023-04-18T01:34:47.928Z,62.16
2023-04-18T01:35:53.273Z,62.32
2023-04-18T01:36:58.598Z,61.84
2023-04-18T01:38:03.910Z,62.03
2023-04-18T01:39:09.258Z,62.19
2023-04-18T01:40:14.610Z,61.69
2023-04-18T01:41:19.945Z,61.28
2023-04-18T01:42:25.268Z,61.76
2023-04-18T01:43:30.597Z,61.77
2023-04-18T01:44:36.000Z,61.55
2023-04-18T01:45:41.356Z,61.37
2023-04-18T01:46:47.063Z,61.52
2023-04-18T01:47:52.664Z,61.54
2023-04-18T01:48:58.128Z,62.06
2023-04-18T01:50:03.561Z,61.52
2023-04-18T01:51:08.874Z,62.27
2023-04-18T01:52:14.396Z,62.37
2023-04-18T01:53:19.728Z,61.57
2023-04-18T01:54:25.056Z,61.63
2023-04-18T01:55:30.379Z,62.29
2023-04-18T01:56:35.717Z,62.07
2023-04-18T01:57:41.019Z,62.06
2023-04-18T01:58:46.542Z,62.48
2023-04-18T01:59:51.865Z,62.3
2023-04-18T02:00:57.406Z,61.54
2023-04-18T02:02:03.152Z,62.28
2023-04-18T02:03:09.315Z,62.54
2023-04-18T02:04:15.604Z,61.74
2023-04-18T02:05:21.103Z,61.88
2023-04-18T02:06:26.464Z,61.51
2023-04-18T02:07:31.821Z,61.85
2023-04-18T02:08:37.558Z,61.94
2023-04-18T02:09:42.908Z,62.38
2023-04-18T02:10:48.237Z,62.46
2023-04-18T02:11:53.561Z,62.63
2023-04-18T02:12:58.914Z,61.71
2023-04-18T02:14:04.317Z,62.04
2023-04-18T02:15:09.684Z,61.96
2023-04-18T02:16:15.178Z,61.89
2023-04-18T02:17:20.603Z,61.84
2023-04-18T02:18:26.017Z,61.72
2023-04-18T02:19:31.358Z,62
2023-04-18T02:20:36.700Z,61.54
2023-04-18T02:21:42.096Z,61.69
2023-04-18T02:22:47.407Z,62.37
2023-04-18T02:23:52.761Z,62.28
2023-04-18T02:24:58.086Z,62.24
2023-04-18T02:26:03.434Z,61.91
2023-04-18T02:27:08.940Z,62.09
2023-04-18T02:28:14.310Z,61.87
2023-04-18T02:29:19.617Z,62.02
2023-04-18T02:30:24.934Z,61.96
2023-04-18T02:31:30.352Z,61.91
2023-04-18T02:32:35.837Z,61.83
2023-04-18T02:33:41.233Z,61.83
2023-04-18T02:34:46.551Z,62.1
2023-04-18T02:35:51.909Z,62.01
2023-04-18T02:36:57.261Z,61.92
2023-04-18T02:38:02.576Z,61.87
2023-04-18T02:39:07.955Z,61.87
2023-04-18T02:40:13.330Z,61.95
2023-04-18T02:41:18.880Z,61.91
2023-04-18T02:42:24.211Z,61.89
2023-04-18T02:43:29.545Z,62.25
2023-04-18T02:44:34.881Z,61.97
2023-04-18T02:45:40.373Z,62.34
2023-04-18T02:46:45.757Z,62.29
2023-04-18T02:47:58.692Z,62.06
2023-04-18T02:49:04.040Z,61.92
2023-04-18T02:50:09.408Z,62.8
2023-04-18T02:51:14.719Z,62.4
2023-04-18T02:52:20.297Z,62.09
2023-04-18T02:53:25.646Z,62.12
2023-04-18T02:54:30.974Z,62.11
2023-04-18T02:55:36.280Z,62.26
2023-04-18T02:56:41.620Z,62.21
2023-04-18T02:57:46.990Z,63.03
2023-04-18T02:58:52.319Z,62.33
2023-04-18T02:59:57.629Z,63.3
2023-04-18T03:01:03.108Z,62.67
2023-04-18T03:02:08.618Z,62.5
2023-04-18T03:03:14.159Z,62.55
2023-04-18T03:04:19.779Z,63.06
2023-04-18T03:05:25.128Z,63.45
2023-04-18T03:06:30.423Z,62.51
2023-04-18T03:07:35.798Z,63.29
2023-04-18T03:08:41.156Z,63.52
2023-04-18T03:09:46.497Z,62.94
2023-04-18T03:10:51.919Z,63.67
2023-04-18T03:11:57.377Z,63.75
2023-04-18T03:13:02.721Z,63.72
2023-04-18T03:14:08.084Z,63.07
2023-04-18T03:15:13.424Z,63.71
2023-04-18T03:16:19.062Z,63.63
2023-04-18T03:17:24.800Z,63.85
2023-04-18T03:18:30.183Z,63.75
2023-04-18T03:19:35.566Z,63.6
2023-04-18T03:20:40.931Z,63.77
2023-04-18T03:21:46.242Z,63.35
2023-04-18T03:22:51.589Z,63.68
2023-04-18T03:23:56.959Z,63.6
2023-04-18T03:25:02.375Z,63.97
2023-04-18T03:26:07.736Z,63.76
2023-04-18T03:27:13.084Z,63.91
2023-04-18T03:28:18.426Z,64.05
2023-04-18T03:29:23.784Z,63.85
2023-04-18T03:30:29.132Z,63.85
2023-04-18T03:31:34.594Z,63.74
2023-04-18T03:32:40.109Z,63.79
2023-04-18T03:33:45.522Z,63.85
2023-04-18T03:34:50.904Z,63.74
2023-04-18T03:35:56.238Z,63.75
2023-04-18T03:37:01.554Z,63.92
2023-04-18T03:38:06.900Z,63.44
2023-04-18T03:39:12.235Z,63.85
2023-04-18T03:40:17.594Z,63.75
2023-04-18T03:41:22.893Z,63.87
2023-04-18T03:42:28.218Z,63.92
2023-04-18T03:43:34.575Z,63.71
2023-04-18T03:44:39.933Z,63.55
2023-04-18T03:45:45.271Z,64.12
2023-04-18T03:46:50.641Z,63.88
2023-04-18T03:47:56.142Z,63.59
2023-04-18T03:49:01.524Z,63.75
2023-04-18T03:50:06.887Z,63.92
2023-04-18T03:51:12.430Z,63.8
2023-04-18T03:52:17.777Z,63.94
2023-04-18T03:53:23.424Z,63.7
2023-04-18T03:54:28.783Z,63.76
2023-04-18T03:55:34.180Z,63.68
2023-04-18T03:56:39.559Z,63.36
2023-04-18T03:57:44.911Z,62.28
2023-04-18T03:58:50.248Z,61.88
2023-04-18T03:59:55.613Z,61.18
2023-04-18T04:01:01.005Z,62.17
2023-04-18T04:02:06.806Z,61.36
2023-04-18T04:03:12.906Z,61.24
2023-04-18T04:04:19.416Z,60.53
2023-04-18T04:05:24.906Z,60.12
2023-04-18T04:06:30.198Z,59.84
2023-04-18T04:07:35.531Z,59.43
2023-04-18T04:08:40.858Z,59.47
2023-04-18T04:09:46.181Z,58.86
2023-04-18T04:10:51.502Z,58.77
2023-04-18T04:11:56.850Z,58.64
2023-04-18T04:13:02.204Z,58.73
2023-04-18T04:14:07.570Z,58.55
2023-04-18T04:15:12.910Z,58.39
2023-04-18T04:16:18.486Z,58.34
2023-04-18T04:17:23.893Z,58.38
2023-04-18T04:18:29.237Z,58.27
2023-04-18T04:19:34.607Z,58.29
2023-04-18T04:20:39.951Z,58.21
2023-04-18T04:21:45.407Z,58.12
2023-04-18T04:22:50.764Z,58.02
2023-04-18T04:23:56.150Z,57.91
2023-04-18T04:25:01.517Z,57.91
2023-04-18T04:26:06.838Z,57.88
2023-04-18T04:27:12.156Z,57.73
2023-04-18T04:28:17.480Z,57.72
2023-04-18T04:29:22.804Z,57.74
2023-04-18T04:30:28.158Z,57.66
2023-04-18T04:31:33.633Z,57.59
2023-04-18T04:32:39.132Z,57.5
2023-04-18T04:33:47.571Z,57.47
2023-04-18T04:34:52.984Z,57.44
2023-04-18T04:35:58.366Z,57.46
2023-04-18T04:37:03.742Z,57.46
2023-04-18T04:38:09.116Z,57.43
2023-04-18T04:39:14.547Z,57.38
2023-04-18T04:40:19.871Z,57.39
2023-04-18T04:41:25.366Z,57.4
2023-04-18T04:42:30.730Z,57.39
2023-04-18T04:43:36.057Z,57.39
2023-04-18T04:44:41.562Z,57.39
2023-04-18T04:45:47.178Z,57.38
2023-04-18T04:46:55.569Z,57.39
2023-04-18T04:48:01.064Z,57.44
2023-04-18T04:49:06.444Z,57.44
2023-04-18T04:50:11.801Z,57.49
2023-04-18T04:51:17.147Z,57.52
2023-04-18T04:52:22.532Z,57.51
2023-04-18T04:53:27.846Z,57.61
2023-04-18T04:54:34.328Z,57.59
2023-04-18T04:55:39.654Z,57.73
2023-04-18T04:56:45.055Z,57.72
2023-04-18T04:57:50.406Z,57.68
2023-04-18T04:58:55.762Z,57.67
2023-04-18T05:00:01.087Z,57.64
2023-04-18T05:01:06.594Z,57.76
2023-04-18T05:02:12.518Z,57.64
2023-04-18T05:03:18.507Z,57.63
2023-04-18T05:04:24.549Z,57.71
2023-04-18T05:05:30.254Z,57.58
2023-04-18T05:06:35.625Z,57.72
2023-04-18T05:07:40.967Z,57.68
2023-04-18T05:08:46.289Z,57.6
2023-04-18T05:09:51.596Z,57.76
2023-04-18T05:10:56.900Z,57.5
2023-04-18T05:12:02.256Z,57.7
2023-04-18T05:13:07.582Z,57.74
2023-04-18T05:14:13.466Z,57.58
2023-04-18T05:15:18.910Z,57.59
2023-04-18T05:16:24.475Z,57.72
2023-04-18T05:17:29.949Z,57.74
2023-04-18T05:18:37.645Z,57.65
2023-04-18T05:19:43.025Z,57.58
2023-04-18T05:20:48.342Z,57.5
2023-04-18T05:21:53.698Z,57.5
2023-04-18T05:22:59.037Z,57.44
2023-04-18T05:24:04.367Z,57.23
2023-04-18T05:25:09.719Z,57.21
2023-04-18T05:26:15.070Z,57.3
2023-04-18T05:27:20.967Z,57.15
2023-04-18T05:28:26.344Z,57.16
2023-04-18T05:29:31.672Z,57.12
2023-04-18T05:30:39.482Z,57.09
2023-04-18T05:31:44.830Z,57.08
2023-04-18T05:32:50.331Z,57
2023-04-18T05:33:55.680Z,57.02
2023-04-18T05:35:01.136Z,57.09
2023-04-18T05:36:06.495Z,57.02
2023-04-18T05:37:11.825Z,57.01
2023-04-18T05:38:17.185Z,56.78
2023-04-18T05:39:22.523Z,57.02
2023-04-18T05:40:27.867Z,57.11
2023-04-18T05:41:33.205Z,57.13
2023-04-18T05:42:38.646Z,56.88
2023-04-18T05:44:04.626Z,56.94
2023-04-18T05:45:10.212Z,57.08
2023-04-18T05:46:15.692Z,56.89
2023-04-18T05:47:21.057Z,56.87
2023-04-18T05:48:26.763Z,56.96
2023-04-18T05:49:32.056Z,57.07
2023-04-18T05:50:37.460Z,57.16
2023-04-18T05:51:42.841Z,57.17
2023-04-18T05:52:48.157Z,57
2023-04-18T05:53:53.487Z,57.03
2023-04-18T05:54:58.836Z,56.97
2023-04-18T05:56:04.148Z,57.01
2023-04-18T05:57:10.589Z,57.07
2023-04-18T05:58:15.916Z,57.09
2023-04-18T05:59:21.274Z,57.01
2023-04-18T06:00:26.602Z,57.02
2023-04-18T06:01:31.914Z,56.92
2023-04-18T06:02:37.723Z,56.89
2023-04-18T06:03:44.102Z,57.02
2023-04-18T06:04:50.292Z,56.96
2023-04-18T06:05:56.134Z,57.01
2023-04-18T06:07:01.483Z,56.93
2023-04-18T06:08:06.829Z,57.03
2023-04-18T06:09:12.164Z,56.98
2023-04-18T06:10:17.550Z,56.95
2023-04-18T06:11:22.891Z,56.88
2023-04-18T06:12:28.227Z,56.87
2023-04-18T06:13:33.542Z,57.13
2023-04-18T06:14:38.879Z,56.88
2023-04-18T06:15:44.323Z,57
2023-04-18T06:16:49.692Z,57.05
2023-04-18T06:17:55.156Z,57.14
2023-04-18T06:19:03.711Z,57.11
2023-04-18T06:20:10.082Z,57.03
2023-04-18T06:21:15.451Z,57.15
2023-04-18T06:22:20.823Z,57.06
2023-04-18T06:23:26.235Z,57.03
2023-04-18T06:24:33.820Z,57.09
2023-04-18T06:25:39.169Z,57.02
2023-04-18T06:26:45.534Z,56.93
2023-04-18T06:27:50.953Z,57.12
2023-04-18T06:28:56.280Z,56.92
2023-04-18T06:30:01.775Z,56.95
2023-04-18T06:31:07.196Z,56.96
2023-04-18T06:32:12.610Z,56.71
2023-04-18T06:33:18.947Z,56.91
2023-04-18T06:34:24.254Z,56.97
2023-04-18T06:35:29.600Z,56.97
2023-04-18T06:36:35.164Z,56.83
2023-04-18T06:37:40.553Z,56.89
2023-04-18T06:38:45.898Z,56.79
2023-04-18T06:39:51.243Z,56.94
2023-04-18T06:40:56.602Z,56.73
2023-04-18T06:42:01.958Z,56.96
2023-04-18T06:43:07.286Z,56.86
2023-04-18T06:44:12.588Z,56.83
2023-04-18T06:45:17.895Z,56.86
2023-04-18T06:46:23.669Z,56.81
2023-04-18T06:47:29.194Z,56.89
2023-04-18T06:48:34.525Z,56.92
2023-04-18T06:49:39.924Z,57
2023-04-18T06:50:45.292Z,56.89
2023-04-18T06:51:50.604Z,57.02
2023-04-18T06:52:55.966Z,57.11
2023-04-18T06:54:01.392Z,56.81
2023-04-18T06:55:06.758Z,56.96
2023-04-18T06:56:12.178Z,56.94
2023-04-18T06:57:17.606Z,56.78
2023-04-18T06:58:25.466Z,57.03
2023-04-18T06:59:30.811Z,56.72
2023-04-18T07:00:36.149Z,56.85
2023-04-18T07:01:41.669Z,56.92
2023-04-18T07:02:47.470Z,57.01
2023-04-18T07:03:53.260Z,56.69
2023-04-18T07:04:58.738Z,57.02
2023-04-18T07:06:04.193Z,56.85
2023-04-18T07:07:09.535Z,56.88
2023-04-18T07:08:14.928Z,56.77
2023-04-18T07:09:20.326Z,56.77
2023-04-18T07:10:25.774Z,56.57
2023-04-18T07:11:31.120Z,56.73
2023-04-18T07:12:36.483Z,56.67
2023-04-18T07:13:41.840Z,56.67
2023-04-18T07:14:47.184Z,56.57
2023-04-18T07:15:52.515Z,56.59
2023-04-18T07:16:58.052Z,56.65
2023-04-18T07:18:03.579Z,56.63
2023-04-18T07:19:08.934Z,56.58
2023-04-18T07:20:15.929Z,56.58
2023-04-18T07:21:21.264Z,56.57
2023-04-18T07:22:26.638Z,56.58
2023-04-18T07:23:31.965Z,56.56
2023-04-18T07:24:37.328Z,56.52
2023-04-18T07:25:42.709Z,56.46
2023-04-18T07:26:48.039Z,56.5
2023-04-18T07:27:53.400Z,56.47
2023-04-18T07:28:58.834Z,56.43
2023-04-18T07:30:04.183Z,56.49
2023-04-18T07:31:09.663Z,56.52
2023-04-18T07:32:15.042Z,56.51
2023-04-18T07:33:20.422Z,56.52
2023-04-18T07:34:25.833Z,56.5
2023-04-18T07:35:31.147Z,56.51
2023-04-18T07:36:36.463Z,56.57
2023-04-18T07:37:41.792Z,56.49
2023-04-18T07:38:47.135Z,56.51
2023-04-18T07:39:52.486Z,56.63
2023-04-18T07:40:57.802Z,56.64
2023-04-18T07:42:03.446Z,56.66
2023-04-18T07:43:08.761Z,56.69
2023-04-18T07:44:14.849Z,56.65
2023-04-18T07:45:20.551Z,56.67
2023-04-18T07:46:26.040Z,56.7
2023-04-18T07:47:34.798Z,56.72
2023-04-18T07:48:40.192Z,56.7
2023-04-18T07:49:45.567Z,56.66
2023-04-18T07:50:50.911Z,56.72
2023-04-18T07:51:56.264Z,56.63
2023-04-18T07:53:01.602Z,56.61
2023-04-18T07:54:06.955Z,56.52
2023-04-18T07:55:12.342Z,56.58
2023-04-18T07:56:17.712Z,56.55
2023-04-18T07:57:23.079Z,56.56
2023-04-18T07:58:28.433Z,56.55
2023-04-18T07:59:33.795Z,56.6
2023-04-18T08:00:41.486Z,56.52
2023-04-18T08:01:46.862Z,56.54
2023-04-18T08:02:52.928Z,56.53
2023-04-18T08:03:58.837Z,56.5
2023-04-18T08:05:04.899Z,56.49
2023-04-18T08:06:10.418Z,56.42
2023-04-18T08:07:15.789Z,56.47
2023-04-18T08:08:22.183Z,56.5
2023-04-18T08:09:27.542Z,56.54
2023-04-18T08:10:32.878Z,56.5
2023-04-18T08:11:38.301Z,56.51
2023-04-18T08:12:43.748Z,56.5
2023-04-18T08:13:49.118Z,56.43
2023-04-18T08:14:54.437Z,56.47
2023-04-18T08:15:59.902Z,56.27
2023-04-18T08:17:05.338Z,56.52
2023-04-18T08:18:10.699Z,56.37
2023-04-18T08:19:16.727Z,56.5
2023-04-18T08:20:22.052Z,56.54
2023-04-18T08:21:27.621Z,56.41
2023-04-18T08:22:32.955Z,56.46
2023-04-18T08:23:38.312Z,56.26
2023-04-18T08:25:05.994Z,56.55
2023-04-18T08:26:11.341Z,56.57
2023-04-18T08:27:16.787Z,56.51
2023-04-18T08:28:22.184Z,56.37
2023-04-18T08:29:27.706Z,56.5
2023-04-18T08:30:33.107Z,56.62
2023-04-18T08:31:38.707Z,56.56
2023-04-18T08:32:44.359Z,56.44
2023-04-18T08:33:49.766Z,56.51
2023-04-18T08:34:55.119Z,56.44
2023-04-18T08:36:00.450Z,56.31
2023-04-18T08:37:05.778Z,56.41
2023-04-18T08:38:11.205Z,56.39
2023-04-18T08:39:17.156Z,56.38
2023-04-18T08:40:22.557Z,56.42
2023-04-18T08:41:27.872Z,56.65
2023-04-18T08:42:33.216Z,56.36
2023-04-18T08:43:38.563Z,56.63
2023-04-18T08:44:43.976Z,56.28
2023-04-18T08:45:49.431Z,56.2
2023-04-18T08:46:54.839Z,56.41
2023-04-18T08:48:00.431Z,56.45
2023-04-18T08:49:05.818Z,56.19
2023-04-18T08:50:11.199Z,56.28
2023-04-18T08:51:16.595Z,56.32
2023-04-18T08:52:21.938Z,56.28
2023-04-18T08:53:27.317Z,56.24
2023-04-18T08:54:32.691Z,56.15
2023-04-18T08:55:38.067Z,56.04
2023-04-18T08:56:43.483Z,56.05
2023-04-18T08:57:50.172Z,56.05
2023-04-18T08:58:55.625Z,55.99
2023-04-18T09:00:00.957Z,56.02
2023-04-18T09:01:06.559Z,56.12
2023-04-18T09:02:12.406Z,56.09
2023-04-18T09:03:20.669Z,56.17
2023-04-18T09:04:26.152Z,56.08
2023-04-18T09:05:31.820Z,56.02
2023-04-18T09:06:37.155Z,56
2023-04-18T09:07:42.547Z,56.06
2023-04-18T09:08:47.914Z,55.94
2023-04-18T09:09:53.242Z,55.92
2023-04-18T09:10:58.565Z,56.05
2023-04-18T09:12:03.943Z,55.97
2023-04-18T09:13:09.342Z,55.98
2023-04-18T09:14:15.129Z,55.9
2023-04-18T09:15:20.600Z,55.97
2023-04-18T09:16:26.063Z,56
2023-04-18T09:17:31.472Z,55.98
2023-04-18T09:18:36.870Z,55.98
2023-04-18T09:19:42.223Z,56.11
2023-04-18T09:20:47.606Z,56.04
2023-04-18T09:21:52.983Z,56.08
2023-04-18T09:22:58.424Z,56.1
2023-04-18T09:24:03.820Z,56.08
2023-04-18T09:25:09.160Z,56.02
2023-04-18T09:26:14.480Z,56.04
2023-04-18T09:27:19.837Z,56.11
2023-04-18T09:28:28.474Z,56.13
2023-04-18T09:29:33.875Z,56.1
2023-04-18T09:30:39.518Z,56.08
2023-04-18T09:31:47.662Z,56.08
2023-04-18T09:32:53.191Z,56.08
2023-04-18T09:33:58.579Z,56.06
2023-04-18T09:35:06.733Z,56.1
2023-04-18T09:36:12.063Z,56.1
2023-04-18T09:37:17.549Z,56.08
2023-04-18T09:38:22.898Z,56.09
2023-04-18T09:39:28.223Z,56.07
2023-04-18T09:40:33.596Z,56.09
2023-04-18T09:41:38.963Z,56.13
2023-04-18T09:42:44.278Z,56.16
2023-04-18T09:43:49.604Z,56.11
2023-04-18T09:44:57.097Z,56.11
2023-04-18T09:46:05.034Z,56.03
2023-04-18T09:47:10.484Z,56.09
2023-04-18T09:48:15.804Z,56.1
2023-04-18T09:49:21.396Z,56.02
2023-04-18T09:50:26.796Z,56.08
2023-04-18T09:51:32.128Z,56.17
2023-04-18T09:52:37.497Z,56.14
2023-04-18T09:53:42.857Z,56.13
2023-04-18T09:54:50.838Z,56.17
2023-04-18T09:55:59.265Z,56.24
2023-04-18T09:57:04.750Z,56.27
2023-04-18T09:58:12.657Z,56.19
2023-04-18T09:59:21.350Z,56.2
2023-04-18T10:00:27.065Z,56.26
2023-04-18T10:01:32.645Z,56.26
2023-04-18T10:02:38.290Z,56.26
2023-04-18T10:03:44.030Z,56.14
2023-04-18T10:04:49.800Z,56.29
2023-04-18T10:05:57.837Z,56.37
2023-04-18T10:07:03.294Z,55.67
2023-04-18T10:08:08.637Z,55
2023-04-18T10:09:14.998Z,54.71
2023-04-18T10:10:20.631Z,54.44
2023-04-18T10:11:25.976Z,54.33
2023-04-18T10:12:31.407Z,54.23
2023-04-18T10:13:36.876Z,53.94
2023-04-18T10:14:42.253Z,53.95
2023-04-18T10:15:48.314Z,53.68
2023-04-18T10:16:53.802Z,53.57
2023-04-18T10:18:08.181Z,53.47
2023-04-18T10:19:14.122Z,53.31
2023-04-18T10:20:19.650Z,53.25
2023-04-18T10:21:25.112Z,53.04
2023-04-18T10:22:30.451Z,53.08
2023-04-18T10:23:35.776Z,53.01
2023-04-18T10:24:41.099Z,52.98
2023-04-18T10:25:46.408Z,52.99
2023-04-18T10:26:51.910Z,52.78
2023-04-18T10:27:57.250Z,52.68
2023-04-18T10:29:02.548Z,52.91
2023-04-18T10:30:10.389Z,52.6
2023-04-18T10:31:15.827Z,52.58
2023-04-18T10:32:21.268Z,52.43
2023-04-18T10:33:33.734Z,52.38
2023-04-18T10:34:39.229Z,52.33
2023-04-18T10:35:44.606Z,52.45
2023-04-18T10:36:49.930Z,52.16
2023-04-18T10:37:55.297Z,52.09
2023-04-18T10:39:00.672Z,51.91
2023-04-18T10:40:06.154Z,52.11
2023-04-18T10:41:11.545Z,51.88
2023-04-18T10:42:16.919Z,51.69
2023-04-18T10:43:22.304Z,52.11
2023-04-18T10:44:27.735Z,52.62
2023-04-18T10:45:33.120Z,52.59
2023-04-18T10:46:38.573Z,52.58
2023-04-18T10:47:44.234Z,52.68
2023-04-18T10:48:49.741Z,52.74
2023-04-18T10:49:55.088Z,52.66
2023-04-18T10:51:00.615Z,52.78
2023-04-18T10:52:07.000Z,52.85
2023-04-18T10:53:12.414Z,52.75
2023-04-18T10:54:18.033Z,52.87
2023-04-18T10:55:23.400Z,52.81
2023-04-18T10:56:29.110Z,52.87
2023-04-18T10:57:34.485Z,52.97
2023-04-18T10:58:39.883Z,52.97
2023-04-18T10:59:45.290Z,53.05
2023-04-18T11:00:53.791Z,53.12
2023-04-18T11:01:59.267Z,53.06
2023-04-18T11:03:05.170Z,53.18
2023-04-18T11:04:10.975Z,53.22
2023-04-18T11:05:16.402Z,53.23
2023-04-18T11:06:22.499Z,53.33
2023-04-18T11:07:31.213Z,53.31
2023-04-18T11:08:36.571Z,53.28
2023-04-18T11:09:43.005Z,53.35
2023-04-18T11:10:49.352Z,53.46
2023-04-18T11:11:54.688Z,53.52
2023-04-18T11:13:00.071Z,53.55
2023-04-18T11:14:05.471Z,53.67
2023-04-18T11:15:10.924Z,53.74
2023-04-18T11:16:16.414Z,53.78
2023-04-18T11:17:21.799Z,53.7
2023-04-18T11:18:27.139Z,53.67
2023-04-18T11:19:32.514Z,53.75
2023-04-18T11:20:37.902Z,53.74
2023-04-18T11:21:43.245Z,53.7
2023-04-18T11:22:48.636Z,53.68
2023-04-18T11:23:53.973Z,53.68
2023-04-18T11:24:59.514Z,53.74
2023-04-18T11:26:05.035Z,53.74
2023-04-18T11:27:10.372Z,53.72
2023-04-18T11:28:15.756Z,53.72
2023-04-18T11:29:21.124Z,53.74
2023-04-18T11:30:26.479Z,53.78
2023-04-18T11:31:32.235Z,53.9
2023-04-18T11:32:37.938Z,54.09
2023-04-18T11:33:43.295Z,54.09
2023-04-18T11:34:48.731Z,54.14
2023-04-18T11:35:54.057Z,54.08
2023-04-18T11:36:59.461Z,54.1
2023-04-18T11:38:04.760Z,54.03
2023-04-18T11:39:10.110Z,54.08
2023-04-18T11:40:15.445Z,54.02
2023-04-18T11:41:20.833Z,54.07
2023-04-18T11:42:26.276Z,54.09
2023-04-18T11:43:31.937Z,54.28
2023-04-18T11:44:38.996Z,54.52
2023-04-18T11:45:44.514Z,54.53
2023-04-18T11:46:49.853Z,54.55
2023-04-18T11:47:55.369Z,54.57
2023-04-18T11:49:00.795Z,54.58
2023-04-18T11:50:06.165Z,54.53
2023-04-18T11:51:11.600Z,54.49
2023-04-18T11:52:20.036Z,54.63
2023-04-18T11:53:25.372Z,54.77
2023-04-18T11:54:30.722Z,54.69
2023-04-18T11:55:36.060Z,54.58
2023-04-18T11:56:41.391Z,54.63
2023-04-18T11:57:46.760Z,54.74
2023-04-18T11:58:52.095Z,54.65
2023-04-18T11:59:57.453Z,54.63
2023-04-18T12:01:02.926Z,54.75
2023-04-18T12:02:19.312Z,54.82
2023-04-18T12:03:25.332Z,54.79
2023-04-18T12:04:31.608Z,54.7
2023-04-18T12:05:38.247Z,54.82
2023-04-18T12:06:43.785Z,54.74
2023-04-18T12:07:49.139Z,54.86
2023-04-18T12:08:56.259Z,54.98
2023-04-18T12:10:01.679Z,54.97
2023-04-18T12:11:07.044Z,54.95
2023-04-18T12:12:12.362Z,54.93
2023-04-18T12:13:18.021Z,54.94
2023-04-18T12:14:23.374Z,54.92
2023-04-18T12:15:28.705Z,54.92
2023-04-18T12:16:34.296Z,54.84
2023-04-18T12:17:39.759Z,54.81
2023-04-18T12:18:45.165Z,54.92
2023-04-18T12:19:52.403Z,54.95
2023-04-18T12:20:57.707Z,54.83
2023-04-18T12:22:03.074Z,54.83
2023-04-18T12:23:08.411Z,54.85
2023-04-18T12:24:14.438Z,54.89
2023-04-18T12:25:19.994Z,54.88
2023-04-18T12:26:25.458Z,54.93
2023-04-18T12:27:30.806Z,54.91
2023-04-18T12:28:36.477Z,54.89
2023-04-18T12:29:41.847Z,55.03
2023-04-18T12:30:47.190Z,55.04
2023-04-18T12:31:53.042Z,55.01
2023-04-18T12:32:59.353Z,55.04
2023-04-18T12:34:04.838Z,54.93
2023-04-18T12:35:10.206Z,55.13
2023-04-18T12:36:15.610Z,55.01
2023-04-18T12:37:20.961Z,55.03
2023-04-18T12:38:26.307Z,55.12
2023-04-18T12:39:31.675Z,55.18
2023-04-18T12:40:37.022Z,55.11
2023-04-18T12:41:42.443Z,55.01
2023-04-18T12:42:47.797Z,55.12
2023-04-18T12:43:53.157Z,55.17
2023-04-18T12:44:58.538Z,55.02
2023-04-18T12:46:03.971Z,55.08
2023-04-18T12:47:09.549Z,55.1
2023-04-18T12:48:14.886Z,55.15
2023-04-18T12:49:20.273Z,55.14
2023-04-18T12:50:25.717Z,55.17
2023-04-18T12:51:31.058Z,55.29
2023-04-18T12:52:36.413Z,55.22
2023-04-18T12:53:41.723Z,55.24
2023-04-18T12:54:47.095Z,55.25
2023-04-18T12:55:52.448Z,55.27
2023-04-18T12:56:57.781Z,55.28
2023-04-18T12:58:03.166Z,55.31
2023-04-18T12:59:08.515Z,55.4
2023-04-18T13:00:14.153Z,55.33
2023-04-18T13:01:19.783Z,55.29
2023-04-18T13:02:25.522Z,55.4
2023-04-18T13:03:31.399Z,55.43
2023-04-18T13:04:37.698Z,55.33
2023-04-18T13:05:43.181Z,55.45
2023-04-18T13:06:48.514Z,55.56
2023-04-18T13:08:17.437Z,55.44
2023-04-18T13:09:23.419Z,55.35
2023-04-18T13:10:28.809Z,55.53
2023-04-18T13:11:36.435Z,55.54
2023-04-18T13:12:41.763Z,55.45
2023-04-18T13:13:47.168Z,55.5
2023-04-18T13:14:52.467Z,55.52
2023-04-18T13:15:57.997Z,55.34
2023-04-18T13:17:03.594Z,55.35
2023-04-18T13:18:09.616Z,55.46
2023-04-18T13:19:15.692Z,55.5
2023-04-18T13:20:21.167Z,55.53
2023-04-18T13:21:26.582Z,55.59
2023-04-18T13:22:31.956Z,55.62
2023-04-18T13:23:37.300Z,55.6
2023-04-18T13:24:42.642Z,55.48
2023-04-18T13:25:48.002Z,55.6
2023-04-18T13:26:53.380Z,55.75
2023-04-18T13:27:58.830Z,55.65
2023-04-18T13:29:04.282Z,55.75
2023-04-18T13:30:09.679Z,55.87
2023-04-18T13:31:17.256Z,55.73
2023-04-18T13:32:22.843Z,55.75
2023-04-18T13:33:28.197Z,55.85
2023-04-18T13:34:33.567Z,55.91
2023-04-18T13:35:38.904Z,55.97
2023-04-18T13:36:45.079Z,55.98
2023-04-18T13:37:51.183Z,56
2023-04-18T13:38:56.591Z,56.03
2023-04-18T13:40:01.904Z,56.04
2023-04-18T13:41:15.456Z,55.96
2023-04-18T13:42:20.846Z,56.04
2023-04-18T13:43:26.193Z,55.88
2023-04-18T13:44:31.539Z,55.96
2023-04-18T13:45:36.919Z,56.03
2023-04-18T13:46:42.300Z,55.97
2023-04-18T13:47:47.840Z,55.76
2023-04-18T13:48:53.223Z,56.23
2023-04-18T13:49:58.539Z,56.11
2023-04-18T13:51:03.987Z,56.13
2023-04-18T13:52:09.403Z,56.11
2023-04-18T13:53:14.752Z,56.16
2023-04-18T13:54:20.130Z,56.01
2023-04-18T13:55:25.462Z,56
2023-04-18T13:56:30.853Z,56.17
2023-04-18T13:57:36.304Z,56.06
2023-04-18T13:58:41.644Z,56.1
2023-04-18T13:59:46.983Z,56.21
2023-04-18T14:00:52.338Z,56.24
2023-04-18T14:01:58.250Z,56.11
2023-04-18T14:03:04.225Z,56.18
2023-04-18T14:04:10.056Z,56.25
2023-04-18T14:05:15.563Z,56.25
2023-04-18T14:06:20.892Z,56.24
2023-04-18T14:07:26.305Z,56.29
2023-04-18T14:08:31.625Z,56.1
2023-04-18T14:09:36.932Z,56.31